createdAt,value
2018-05-09T00:01:33.075Z,82.80
2018-05-09T00:04:01.141Z,82.90
2018-05-09T00:06:28.694Z,82.40
2018-05-09T00:08:57.006Z,82.60
2018-05-09T00:11:24.524Z,82.60
2018-05-09T00:13:52.100Z,83.20
2018-05-09T00:16:21.333Z,83.20
2018-05-09T00:18:48.897Z,83.20
2018-05-09T00:21:17.388Z,83.60
2018-05-09T00:23:45.825Z,84.00
2018-05-09T00:26:14.109Z,84.80
2018-05-09T00:28:42.487Z,86.50
2018-05-09T00:31:09.992Z,85.60
2018-05-09T00:33:37.723Z,86.30
2018-05-09T00:36:06.019Z,85.90
2018-05-09T00:38:33.596Z,85.90
2018-05-09T00:41:01.115Z,86.10
2018-05-09T00:43:29.551Z,85.80
2018-05-09T00:45:57.090Z,87.10
2018-05-09T00:48:26.340Z,87.10
2018-05-09T00:50:54.885Z,87.10
2018-05-09T00:53:22.424Z,87.00
2018-05-09T00:55:50.984Z,87.00
2018-05-09T00:58:18.714Z,87.00
2018-05-09T01:00:47.186Z,86.90
2018-05-09T01:03:34.959Z,86.90
2018-05-09T01:06:02.550Z,86.90
2018-05-09T01:21:55.975Z,87.00
2018-05-09T01:24:23.533Z,86.80
2018-05-09T01:26:51.074Z,87.00
2018-05-09T01:29:18.592Z,86.80
2018-05-09T01:31:46.114Z,88.80
2018-05-09T01:34:13.666Z,86.70
2018-05-09T01:36:41.180Z,86.80
2018-05-09T01:39:09.642Z,86.40
2018-05-09T01:41:38.139Z,86.80
2018-05-09T01:44:06.687Z,86.70
2018-05-09T01:46:34.203Z,87.50
2018-05-09T01:49:01.708Z,87.90
2018-05-09T01:51:29.244Z,86.90
2018-05-09T01:53:57.510Z,88.40
2018-05-09T01:56:25.021Z,87.40
2018-05-09T01:58:52.698Z,87.30
2018-05-09T02:01:22.133Z,89.90
2018-05-09T02:03:49.692Z,88.20
2018-05-09T02:06:18.161Z,87.80
2018-05-09T02:08:45.691Z,88.10
2018-05-09T02:11:13.991Z,87.90
2018-05-09T02:13:41.523Z,87.90
2018-05-09T02:16:09.149Z,89.00
2018-05-09T02:18:36.730Z,88.10
2018-05-09T02:21:04.277Z,88.50
2018-05-09T02:23:32.775Z,88.70
2018-05-09T02:26:01.241Z,89.20
2018-05-09T02:28:29.777Z,89.50
2018-05-09T02:30:57.303Z,89.90
2018-05-09T02:33:25.870Z,90.00
2018-05-09T02:35:54.392Z,90.00
2018-05-09T02:38:23.829Z,90.00
2018-05-09T02:41:10.844Z,90.30
2018-05-09T02:46:17.946Z,90.60
2018-05-09T02:48:45.535Z,90.70
2018-05-09T02:51:13.124Z,90.80
2018-05-09T02:53:41.573Z,90.40
2018-05-09T02:56:09.127Z,90.60
2018-05-09T02:58:37.451Z,90.90
2018-05-09T03:01:04.969Z,90.90
2018-05-09T03:03:32.558Z,90.90
2018-05-09T03:06:01.044Z,91.00
2018-05-09T03:08:28.541Z,91.10
2018-05-09T03:10:57.016Z,91.30
2018-05-09T03:13:24.708Z,91.30
2018-05-09T03:15:52.262Z,91.40
2018-05-09T03:18:19.792Z,90.90
2018-05-09T03:20:47.330Z,91.30
2018-05-09T03:23:14.906Z,91.70
2018-05-09T03:25:42.446Z,92.00
2018-05-09T03:28:12.087Z,92.50
2018-05-09T03:30:39.643Z,92.50
2018-05-09T03:33:08.111Z,92.50
2018-05-09T03:35:35.657Z,92.60
2018-05-09T03:38:03.167Z,92.70
2018-05-09T03:40:30.685Z,92.80
2018-05-09T03:43:02.203Z,92.60
2018-05-09T03:45:29.776Z,92.20
2018-05-09T03:47:57.323Z,92.30
2018-05-09T03:50:26.335Z,92.30
2018-05-09T03:52:53.884Z,93.00
2018-05-09T03:55:22.407Z,92.30
2018-05-09T03:57:49.992Z,92.60
2018-05-09T04:00:17.546Z,92.80
2018-05-09T04:02:56.742Z,92.80
2018-05-09T04:05:36.203Z,92.90
2018-05-09T04:08:15.547Z,92.90
2018-05-09T04:10:43.150Z,92.60
2018-05-09T04:13:11.694Z,92.30
2018-05-09T04:15:39.199Z,92.20
2018-05-09T04:18:06.841Z,91.70
2018-05-09T04:20:38.670Z,91.20
2018-05-09T04:23:12.288Z,91.10
2018-05-09T04:25:50.177Z,91.40
2018-05-09T04:28:17.855Z,90.60
2018-05-09T04:30:45.369Z,89.60
2018-05-09T04:33:13.829Z,87.50
2018-05-09T04:36:07.994Z,87.60
2018-05-09T04:38:35.554Z,87.70
2018-05-09T04:41:03.868Z,88.20
2018-05-09T04:43:31.398Z,87.10
2018-05-09T04:45:58.967Z,88.80
2018-05-09T04:48:28.230Z,91.00
2018-05-09T04:50:55.779Z,91.00
2018-05-09T04:53:24.270Z,90.90
2018-05-09T04:55:51.856Z,91.40
2018-05-09T04:58:19.366Z,91.40
2018-05-09T05:00:48.831Z,91.50
2018-05-09T05:03:36.154Z,91.40
2018-05-09T05:08:43.958Z,90.20
2018-05-09T05:11:11.623Z,88.00
2018-05-09T05:13:39.266Z,87.70
2018-05-09T05:16:06.826Z,86.70
2018-05-09T05:18:34.446Z,86.40
2018-05-09T05:21:20.589Z,87.00
2018-05-09T05:23:48.134Z,88.80
2018-05-09T05:26:15.691Z,88.20
2018-05-09T05:28:44.074Z,88.20
2018-05-09T05:31:12.354Z,88.50
2018-05-09T05:33:40.636Z,89.50
2018-05-09T05:36:08.178Z,89.60
2018-05-09T05:38:35.732Z,88.20
2018-05-09T05:41:04.246Z,89.10
2018-05-09T05:43:32.601Z,89.80
2018-05-09T05:46:00.108Z,89.60
2018-05-09T05:48:27.710Z,90.10
2018-05-09T05:50:56.202Z,88.40
2018-05-09T05:53:23.720Z,90.10
2018-05-09T05:55:51.285Z,89.70
2018-05-09T05:58:19.443Z,90.80
2018-05-09T06:00:47.015Z,90.20
2018-05-09T06:03:15.290Z,89.80
2018-05-09T06:05:42.887Z,89.00
2018-05-09T06:08:10.448Z,88.40
2018-05-09T06:10:38.019Z,89.40
2018-05-09T06:13:05.585Z,89.40
2018-05-09T06:15:33.129Z,90.50
2018-05-09T06:18:01.408Z,88.90
2018-05-09T06:20:29.705Z,90.20
2018-05-09T06:22:58.134Z,90.20
2018-05-09T06:25:25.664Z,90.70
2018-05-09T06:27:54.136Z,90.60
2018-05-09T06:30:21.657Z,89.80
2018-05-09T06:32:49.172Z,89.00
2018-05-09T06:35:16.674Z,84.80
2018-05-09T06:37:44.950Z,82.20
2018-05-09T06:40:13.469Z,83.00
2018-05-09T06:42:41.011Z,81.40
2018-05-09T06:45:08.530Z,82.70
2018-05-09T06:47:36.167Z,82.30
2018-05-09T06:50:03.774Z,82.40
2018-05-09T06:52:32.026Z,81.00
2018-05-09T06:55:00.301Z,77.90
2018-05-09T06:57:30.509Z,78.30
2018-05-09T06:59:58.082Z,78.00
2018-05-09T07:02:25.774Z,78.00
2018-05-09T07:04:53.197Z,74.90
2018-05-09T07:07:21.646Z,72.80
2018-05-09T07:09:49.144Z,74.10
2018-05-09T07:12:16.727Z,77.00
2018-05-09T07:14:45.040Z,79.50
2018-05-09T07:17:12.643Z,79.50
2018-05-09T07:19:40.200Z,79.40
2018-05-09T07:22:07.830Z,79.20
2018-05-09T07:24:35.261Z,80.10
2018-05-09T07:27:02.787Z,78.30
2018-05-09T07:29:30.312Z,80.90
2018-05-09T07:31:57.890Z,79.20
2018-05-09T07:34:25.408Z,80.50
2018-05-09T07:36:52.924Z,80.20
2018-05-09T07:39:20.484Z,82.90
2018-05-09T07:41:48.003Z,80.80
2018-05-09T07:44:15.523Z,78.80
2018-05-09T07:46:43.133Z,76.60
2018-05-09T07:49:10.717Z,78.60
2018-05-09T07:51:38.321Z,78.20
2018-05-09T07:54:07.810Z,86.00
2018-05-09T07:56:35.404Z,82.90
2018-05-09T07:59:03.854Z,82.50
2018-05-09T08:01:31.358Z,81.50
2018-05-09T08:03:58.919Z,82.60
2018-05-09T08:06:26.495Z,80.10
2018-05-09T08:08:54.003Z,84.20
2018-05-09T08:11:22.280Z,80.00
2018-05-09T08:13:52.481Z,80.30
2018-05-09T08:16:20.053Z,80.00
2018-05-09T08:18:47.625Z,80.50
2018-05-09T08:21:15.135Z,80.20
2018-05-09T08:23:42.693Z,80.10
2018-05-09T08:26:10.237Z,78.10
2018-05-09T08:28:37.938Z,79.10
2018-05-09T08:31:05.448Z,76.50
2018-05-09T08:33:32.960Z,77.70
2018-05-09T08:36:19.215Z,78.70
2018-05-09T08:38:46.635Z,77.10
2018-05-09T08:41:15.096Z,73.20
2018-05-09T08:43:42.728Z,77.20
2018-05-09T08:48:54.454Z,70.90
2018-05-09T08:51:21.952Z,73.00
2018-05-09T08:53:49.498Z,77.50
2018-05-09T08:56:17.936Z,74.10
2018-05-09T08:58:45.636Z,76.60
2018-05-09T09:01:13.205Z,74.40
2018-05-09T09:03:40.719Z,74.90
2018-05-09T09:06:08.272Z,75.20
2018-05-09T09:08:36.754Z,72.70
2018-05-09T09:11:04.316Z,71.60
2018-05-09T09:13:32.811Z,70.70
2018-05-09T09:16:00.350Z,71.90
2018-05-09T09:18:27.916Z,71.30
2018-05-09T09:20:55.495Z,75.80
2018-05-09T09:23:23.001Z,72.10
2018-05-09T09:25:51.300Z,73.40
2018-05-09T09:28:18.802Z,73.20
2018-05-09T09:30:46.385Z,73.40
2018-05-09T09:33:13.880Z,70.10
2018-05-09T09:35:41.388Z,73.40
2018-05-09T09:38:08.915Z,71.30
2018-05-09T09:40:36.473Z,74.10
2018-05-09T09:43:04.801Z,71.00
2018-05-09T09:45:32.327Z,71.00
2018-05-09T09:48:01.757Z,74.60
2018-05-09T09:50:29.293Z,71.90
2018-05-09T09:52:57.662Z,68.60
2018-05-09T09:55:25.188Z,68.60
2018-05-09T09:57:52.705Z,71.30
2018-05-09T10:00:24.817Z,71.40
2018-05-09T10:02:53.057Z,69.60
2018-05-09T10:05:20.635Z,69.70
2018-05-09T10:07:48.344Z,68.60
2018-05-09T10:10:15.855Z,68.50
2018-05-09T10:12:43.371Z,66.80
2018-05-09T10:15:12.950Z,67.60
2018-05-09T10:17:40.540Z,67.80
2018-05-09T10:20:08.977Z,69.20
2018-05-09T10:22:36.529Z,72.00
2018-05-09T10:25:04.883Z,71.60
2018-05-09T10:27:32.399Z,71.50
2018-05-09T10:29:59.939Z,67.80
2018-05-09T10:32:28.208Z,65.50
2018-05-09T10:34:55.724Z,65.60
2018-05-09T10:37:24.204Z,64.20
2018-05-09T10:39:51.740Z,65.20
2018-05-09T10:42:20.012Z,63.00
2018-05-09T10:44:48.312Z,62.90
2018-05-09T10:47:15.864Z,62.40
2018-05-09T10:49:44.131Z,59.70
2018-05-09T10:52:12.431Z,59.70
2018-05-09T10:54:40.036Z,59.10
2018-05-09T10:57:07.570Z,59.00
2018-05-09T10:59:35.094Z,61.90
2018-05-09T11:02:03.535Z,61.10
2018-05-09T11:04:31.028Z,60.00
2018-05-09T11:06:58.562Z,60.40
2018-05-09T11:09:27.010Z,59.10
2018-05-09T11:11:56.199Z,62.90
2018-05-09T11:14:23.725Z,63.10
2018-05-09T11:16:51.329Z,60.00
2018-05-09T11:19:18.837Z,61.50
2018-05-09T11:21:46.373Z,63.50
2018-05-09T11:24:14.637Z,57.20
2018-05-09T11:26:42.147Z,57.20
2018-05-09T11:29:09.704Z,59.50
2018-05-09T11:31:37.236Z,57.50
2018-05-09T11:34:05.097Z,58.40
2018-05-09T11:36:32.635Z,59.80
2018-05-09T11:39:01.054Z,60.90
2018-05-09T11:41:28.560Z,58.10
2018-05-09T11:43:56.166Z,57.90
2018-05-09T11:46:23.678Z,58.10
2018-05-09T11:48:51.182Z,58.20
2018-05-09T11:51:19.651Z,56.00
2018-05-09T11:53:47.217Z,56.10
2018-05-09T11:56:14.721Z,57.20
2018-05-09T11:58:42.278Z,55.60
2018-05-09T12:01:09.780Z,53.40
2018-05-09T12:03:38.230Z,54.40
2018-05-09T12:06:05.746Z,59.60
2018-05-09T12:08:33.252Z,56.00
2018-05-09T12:11:01.726Z,56.10
2018-05-09T12:13:29.349Z,55.80
2018-05-09T12:15:56.853Z,58.20
2018-05-09T12:18:24.365Z,54.60
2018-05-09T12:20:52.122Z,53.30
2018-05-09T12:23:20.376Z,56.20
2018-05-09T12:25:47.884Z,56.20
2018-05-09T12:28:15.386Z,52.30
2018-05-09T12:30:42.878Z,52.80
2018-05-09T12:33:10.396Z,54.50
2018-05-09T12:35:37.937Z,58.70
2018-05-09T12:38:07.207Z,55.00
2018-05-09T12:40:34.717Z,55.80
2018-05-09T12:43:02.249Z,60.20
2018-05-09T12:45:31.441Z,55.70
2018-05-09T12:47:59.034Z,55.80
2018-05-09T12:50:26.572Z,57.80
2018-05-09T12:52:54.086Z,58.40
2018-05-09T12:55:21.661Z,55.50
2018-05-09T12:57:49.175Z,52.80
2018-05-09T13:00:16.746Z,54.10
2018-05-09T13:02:44.269Z,51.70
2018-05-09T13:05:11.800Z,55.50
2018-05-09T13:07:39.314Z,55.10
2018-05-09T13:10:06.846Z,56.30
2018-05-09T13:12:34.374Z,54.40
2018-05-09T13:15:01.958Z,52.40
2018-05-09T13:17:29.475Z,57.30
2018-05-09T13:19:57.058Z,48.30
2018-05-09T13:22:25.371Z,49.50
2018-05-09T13:24:54.911Z,50.00
2018-05-09T13:27:22.460Z,49.30
2018-05-09T13:29:50.014Z,52.10
2018-05-09T13:32:17.590Z,52.20
2018-05-09T13:34:45.133Z,49.00
2018-05-09T13:37:12.647Z,53.30
2018-05-09T13:39:40.166Z,55.70
2018-05-09T13:42:07.727Z,54.10
2018-05-09T13:44:35.233Z,55.60
2018-05-09T13:47:02.737Z,53.00
2018-05-09T13:49:32.191Z,51.90
2018-05-09T13:52:00.688Z,52.50
2018-05-09T13:54:28.202Z,52.00
2018-05-09T13:56:55.729Z,52.20
2018-05-09T13:59:23.242Z,53.20
2018-05-09T14:01:50.774Z,54.50
2018-05-09T14:04:21.014Z,54.70
2018-05-09T14:06:48.728Z,55.10
2018-05-09T14:09:16.292Z,52.70
2018-05-09T14:11:44.792Z,55.20
2018-05-09T14:14:13.267Z,53.70
2018-05-09T14:16:40.813Z,53.40
2018-05-09T14:19:08.342Z,53.00
2018-05-09T14:21:36.857Z,51.90
2018-05-09T14:24:05.337Z,53.60
2018-05-09T14:26:33.313Z,53.10
2018-05-09T14:29:00.865Z,49.70
2018-05-09T14:31:28.366Z,53.20
2018-05-09T14:34:06.022Z,51.70
2018-05-09T14:36:33.568Z,51.80
2018-05-09T14:39:01.087Z,50.20
2018-05-09T14:41:28.712Z,52.00
2018-05-09T14:43:56.221Z,50.10
2018-05-09T14:46:23.815Z,51.40
2018-05-09T14:48:52.091Z,53.00
2018-05-09T14:51:19.632Z,52.90
2018-05-09T14:53:47.153Z,49.70
2018-05-09T14:56:34.493Z,49.00
2018-05-09T14:59:02.085Z,49.60
2018-05-09T15:01:30.560Z,49.80
2018-05-09T15:03:58.187Z,50.20
2018-05-09T15:06:25.815Z,52.00
2018-05-09T15:08:54.089Z,52.50
2018-05-09T15:11:21.655Z,52.70
2018-05-09T15:13:49.171Z,51.90
2018-05-09T15:16:16.728Z,49.10
2018-05-09T15:18:44.489Z,49.40
2018-05-09T15:21:13.705Z,52.90
2018-05-09T15:23:41.274Z,49.70
2018-05-09T15:26:09.818Z,51.50
2018-05-09T15:28:37.387Z,49.20
2018-05-09T15:31:04.967Z,49.00
2018-05-09T15:33:32.553Z,48.50
2018-05-09T15:36:00.157Z,48.90
2018-05-09T15:38:27.728Z,48.80
2018-05-09T15:40:57.178Z,48.80
2018-05-09T15:43:24.690Z,49.40
2018-05-09T15:45:52.211Z,50.20
2018-05-09T15:48:19.839Z,47.50
2018-05-09T15:50:49.303Z,46.60
2018-05-09T15:53:16.813Z,45.40
2018-05-09T15:55:45.259Z,44.40
2018-05-09T15:58:12.825Z,46.50
2018-05-09T16:00:40.452Z,46.70
2018-05-09T16:03:07.984Z,47.10
2018-05-09T16:05:35.529Z,47.60
2018-05-09T16:08:04.089Z,49.40
2018-05-09T16:10:32.569Z,46.30
2018-05-09T16:13:00.096Z,47.20
2018-05-09T16:15:27.593Z,48.20
2018-05-09T16:17:55.195Z,47.30
2018-05-09T16:20:22.724Z,49.70
2018-05-09T16:22:50.273Z,49.00
2018-05-09T16:25:18.618Z,49.00
2018-05-09T16:27:46.147Z,48.60
2018-05-09T16:30:14.605Z,48.80
2018-05-09T16:32:42.142Z,48.60
2018-05-09T16:35:09.670Z,47.80
2018-05-09T16:37:37.440Z,49.20
2018-05-09T16:40:04.992Z,48.60
2018-05-09T16:42:32.569Z,48.60
2018-05-09T16:45:01.074Z,48.40
2018-05-09T16:47:28.662Z,48.60
2018-05-09T16:49:57.223Z,44.70
2018-05-09T16:52:24.780Z,45.50
2018-05-09T16:54:52.305Z,46.60
2018-05-09T16:57:21.532Z,49.10
2018-05-09T16:59:50.092Z,49.10
2018-05-09T17:02:19.566Z,49.60
2018-05-09T17:04:47.094Z,49.20
2018-05-09T17:07:14.793Z,48.30
2018-05-09T17:10:02.873Z,48.00
2018-05-09T17:12:30.369Z,46.50
2018-05-09T17:14:58.876Z,47.20
2018-05-09T17:17:26.433Z,46.60
2018-05-09T17:19:54.029Z,45.80
2018-05-09T17:25:12.427Z,47.50
2018-05-09T17:27:39.972Z,47.50
2018-05-09T17:30:09.526Z,47.20
2018-05-09T17:32:37.041Z,45.50
2018-05-09T17:35:04.645Z,49.30
2018-05-09T17:37:32.212Z,51.90
2018-05-09T17:39:59.975Z,54.90
2018-05-09T17:42:27.578Z,56.00
2018-05-09T17:44:56.027Z,54.60
2018-05-09T17:47:23.545Z,55.60
2018-05-09T17:49:51.059Z,56.30
2018-05-09T17:52:19.550Z,56.20
2018-05-09T17:54:48.024Z,56.30
2018-05-09T17:57:15.540Z,57.30
2018-05-09T17:59:43.092Z,57.70
2018-05-09T18:02:13.070Z,58.00
2018-05-09T18:04:40.651Z,57.90
2018-05-09T18:07:08.241Z,57.60
2018-05-09T18:09:36.755Z,59.40
2018-05-09T18:12:04.321Z,59.90
2018-05-09T18:14:31.824Z,59.90
2018-05-09T18:16:59.486Z,60.30
2018-05-09T18:19:27.009Z,61.30
2018-05-09T18:21:54.591Z,61.70
2018-05-09T18:24:22.163Z,62.30
2018-05-09T18:26:50.784Z,62.60
2018-05-09T18:29:18.209Z,62.50
2018-05-09T18:31:46.685Z,64.10
2018-05-09T18:34:14.240Z,63.20
2018-05-09T18:36:42.707Z,63.60
2018-05-09T18:39:11.052Z,65.00
2018-05-09T18:41:39.566Z,64.90
2018-05-09T18:44:27.723Z,64.30
2018-05-09T18:49:40.131Z,63.80
2018-05-09T18:52:08.476Z,62.90
2018-05-09T18:54:36.006Z,62.90
2018-05-09T18:57:03.562Z,62.90
2018-05-09T18:59:31.187Z,63.30
2018-05-09T19:01:58.750Z,64.00
2018-05-09T19:04:26.305Z,63.80
2018-05-09T19:06:53.841Z,63.00
2018-05-09T19:09:21.363Z,63.40
2018-05-09T19:11:48.909Z,63.50
2018-05-09T19:14:16.444Z,63.30
2018-05-09T19:16:44.273Z,63.60
2018-05-09T19:19:13.784Z,63.90
2018-05-09T19:21:41.297Z,63.80
2018-05-09T19:24:09.770Z,64.20
2018-05-09T19:26:37.303Z,64.60
2018-05-09T19:29:05.845Z,65.00
2018-05-09T19:31:34.366Z,62.80
2018-05-09T19:34:02.675Z,66.10
2018-05-09T19:36:31.738Z,66.10
2018-05-09T19:39:00.011Z,66.40
2018-05-09T19:41:29.471Z,66.50
2018-05-09T19:43:57.008Z,69.80
2018-05-09T19:46:24.570Z,72.90
2018-05-09T19:48:52.107Z,75.10
2018-05-09T19:51:20.415Z,91.20
2018-05-09T19:53:47.995Z,91.10
2018-05-09T19:56:15.551Z,93.40
2018-05-09T19:58:44.979Z,95.00
2018-05-09T20:01:13.061Z,93.10
2018-05-09T20:03:40.600Z,93.60
2018-05-09T20:06:08.137Z,94.50
2018-05-09T20:08:37.594Z,97.30
2018-05-09T20:11:05.200Z,98.30
2018-05-09T20:13:34.518Z,99.90
2018-05-09T20:16:02.939Z,99.90
2018-05-09T20:18:30.547Z,99.90
2018-05-09T20:20:59.033Z,98.80
2018-05-09T20:23:26.539Z,99.90
2018-05-09T20:25:55.023Z,99.90
2018-05-09T20:28:22.565Z,99.90
2018-05-09T20:31:02.416Z,99.90
2018-05-09T20:33:30.672Z,99.90
2018-05-09T20:35:59.172Z,99.90
2018-05-09T20:38:29.484Z,99.90
2018-05-09T20:40:56.989Z,99.90
2018-05-09T20:43:25.271Z,99.90
2018-05-09T20:45:52.777Z,99.90
2018-05-09T20:48:20.286Z,99.90
2018-05-09T20:50:49.478Z,99.90
2018-05-09T20:53:17.078Z,99.90
2018-05-09T20:55:44.603Z,99.90
2018-05-09T20:58:13.118Z,99.90
2018-05-09T21:00:40.626Z,99.80
2018-05-09T21:03:10.129Z,98.90
2018-05-09T21:05:38.569Z,99.90
2018-05-09T21:08:07.840Z,98.00
2018-05-09T21:10:35.400Z,97.90
2018-05-09T21:13:02.942Z,98.10
2018-05-09T21:18:29.204Z,99.00
2018-05-09T21:20:57.693Z,96.80
2018-05-09T21:23:25.253Z,96.50
2018-05-09T21:25:52.777Z,99.90
2018-05-09T21:28:20.277Z,96.60
2018-05-09T21:30:47.813Z,95.70
2018-05-09T21:33:15.371Z,98.20
2018-05-09T21:35:43.810Z,96.90
2018-05-09T21:38:11.434Z,95.60
2018-05-09T21:40:38.974Z,96.20
2018-05-09T21:43:06.495Z,96.00
2018-05-09T21:45:34.927Z,96.20
2018-05-09T21:48:22.079Z,94.00
2018-05-09T22:04:00.170Z,94.20
2018-05-09T22:06:27.683Z,93.70
2018-05-09T22:08:55.284Z,94.20
2018-05-09T22:11:22.792Z,94.40
2018-05-09T22:13:53.003Z,94.80
2018-05-09T22:16:20.555Z,94.80
2018-05-09T22:18:49.043Z,94.40
2018-05-09T22:21:17.480Z,94.30
2018-05-09T22:23:45.018Z,93.20
2018-05-09T22:26:15.346Z,91.40
2018-05-09T22:28:43.798Z,91.40
2018-05-09T22:31:11.438Z,95.70
2018-05-09T22:33:39.901Z,97.50
2018-05-09T22:36:29.119Z,96.50
2018-05-09T22:39:07.888Z,94.20
2018-05-09T22:41:35.502Z,94.50
2018-05-09T22:44:03.983Z,93.60
2018-05-09T22:46:31.474Z,92.80
2018-05-09T23:02:38.233Z,94.30
2018-05-09T23:05:05.954Z,95.40
2018-05-09T23:07:33.442Z,95.40
2018-05-09T23:10:01.897Z,96.00
2018-05-09T23:12:29.392Z,95.60
2018-05-09T23:14:57.104Z,95.90
2018-05-09T23:17:24.595Z,94.40
2018-05-09T23:19:52.134Z,95.10
2018-05-09T23:22:19.671Z,95.30
2018-05-09T23:24:47.203Z,94.80
2018-05-09T23:27:14.714Z,94.40
2018-05-09T23:29:42.429Z,93.30
2018-05-09T23:32:28.589Z,94.20
2018-05-09T23:34:56.100Z,94.10
2018-05-09T23:40:01.557Z,94.80
2018-05-09T23:42:31.257Z,94.30
2018-05-09T23:44:59.735Z,94.70
2018-05-09T23:47:27.247Z,94.60
2018-05-09T23:49:54.743Z,95.00
2018-05-09T23:52:22.266Z,94.40
2018-05-09T23:54:49.756Z,95.60
2018-05-09T23:57:17.356Z,95.20
2018-05-09T23:59:44.942Z,95.30
